createdAt,value
2022-12-18T00:01:37.853Z,38.13
2022-12-18T00:04:14.522Z,38.05
2022-12-18T00:06:41.964Z,36.58
2022-12-18T00:09:10.765Z,38.33
2022-12-18T00:11:38.177Z,40.38
2022-12-18T00:14:06.098Z,44.13
2022-12-18T00:16:36.406Z,40.88
2022-12-18T00:19:05.700Z,42.03
2022-12-18T00:21:34.964Z,42.20
2022-12-18T00:24:02.688Z,43.22
2022-12-18T00:26:35.128Z,41.08
2022-12-18T00:29:14.901Z,41.33
2022-12-18T00:31:45.017Z,41.92
2022-12-18T00:34:14.671Z,39.38
2022-12-18T00:36:43.152Z,38.85
2022-12-18T00:39:13.340Z,40.90
2022-12-18T00:42:00.024Z,39.38
2022-12-18T00:44:27.624Z,39.28
2022-12-18T00:46:55.146Z,40.08
2022-12-18T00:49:22.640Z,40.13
2022-12-18T00:51:51.537Z,39.40
2022-12-18T00:54:19.486Z,40.35
2022-12-18T00:56:50.276Z,37.83
2022-12-18T00:59:23.859Z,38.50
2022-12-18T01:01:52.005Z,37.47
2022-12-18T01:04:21.441Z,40.45
2022-12-18T01:06:49.848Z,37.33
2022-12-18T01:09:17.336Z,36.58
2022-12-18T01:11:44.849Z,36.83
2022-12-18T01:14:12.614Z,34.95
2022-12-18T01:16:40.433Z,35.30
2022-12-18T01:19:08.118Z,39.13
2022-12-18T01:21:35.892Z,38.97
2022-12-18T01:24:11.476Z,41.53
2022-12-18T01:26:39.104Z,40.85
2022-12-18T01:29:06.574Z,36.28
2022-12-18T01:31:39.161Z,36.03
2022-12-18T01:34:07.448Z,38.88
2022-12-18T01:36:39.998Z,36.33
2022-12-18T01:39:17.315Z,37.90
2022-12-18T01:42:04.825Z,37.75
2022-12-18T01:44:59.474Z,37.45
2022-12-18T01:47:48.274Z,39.58
2022-12-18T01:50:47.352Z,38.83
2022-12-18T01:53:23.549Z,37.30
2022-12-18T01:55:56.858Z,33.38
2022-12-18T01:58:43.698Z,36.97
2022-12-18T02:01:11.692Z,36.60
2022-12-18T02:03:43.773Z,33.78
2022-12-18T02:06:28.640Z,37.17
2022-12-18T02:09:11.983Z,37.90
2022-12-18T02:12:18.754Z,32.70
2022-12-18T02:15:04.424Z,32.17
2022-12-18T02:17:51.542Z,34.85
2022-12-18T02:20:53.216Z,35.60
2022-12-18T02:23:52.617Z,36.35
2022-12-18T02:26:33.189Z,37.70
2022-12-18T02:29:09.827Z,35.85
2022-12-18T02:31:49.156Z,36.60
2022-12-18T02:34:20.020Z,39.55
2022-12-18T02:36:50.467Z,36.13
2022-12-18T02:39:22.125Z,37.28
2022-12-18T02:42:00.818Z,35.53
2022-12-18T02:44:28.440Z,38.20
2022-12-18T02:46:56.333Z,39.25
2022-12-18T02:50:00.043Z,38.13
2022-12-18T02:52:55.541Z,35.78
2022-12-18T02:56:07.050Z,36.17
2022-12-18T02:59:13.793Z,36.97
2022-12-18T03:02:53.832Z,34.28
2022-12-18T03:05:34.492Z,35.33
2022-12-18T03:08:21.501Z,35.85
2022-12-18T03:11:04.528Z,35.25
2022-12-18T03:13:57.201Z,36.70
2022-12-18T03:16:32.340Z,35.08
2022-12-18T03:19:12.362Z,36.17
2022-12-18T03:21:53.072Z,36.10
2022-12-18T03:24:23.300Z,36.20
2022-12-18T03:26:59.818Z,35.47
2022-12-18T03:29:44.970Z,35.97
2022-12-18T03:32:32.371Z,37.40
2022-12-18T03:35:06.852Z,35.38
2022-12-18T03:37:37.963Z,35.88
2022-12-18T03:40:07.652Z,35.75
2022-12-18T03:42:54.590Z,34.58
2022-12-18T03:45:37.156Z,33.92
2022-12-18T03:48:55.692Z,34.58
2022-12-18T03:52:18.255Z,33.35
2022-12-18T03:54:48.091Z,32.80
2022-12-18T03:57:30.251Z,32.67
2022-12-18T04:00:15.566Z,33.47
2022-12-18T04:02:58.135Z,32.47
2022-12-18T04:05:36.425Z,32.35
2022-12-18T04:08:05.682Z,32.55
2022-12-18T04:10:37.751Z,33.92
2022-12-18T04:13:05.345Z,33.35
2022-12-18T04:15:38.039Z,30.83
2022-12-18T04:18:09.631Z,32.30
2022-12-18T04:20:41.083Z,32.78
2022-12-18T04:23:11.507Z,32.28
2022-12-18T04:25:39.818Z,32.17
2022-12-18T04:28:17.559Z,30.88
2022-12-18T04:30:45.227Z,31.08
2022-12-18T04:33:18.483Z,29.95
2022-12-18T04:35:46.905Z,31.30
2022-12-18T04:38:15.155Z,30.40
2022-12-18T04:40:43.049Z,31.08
2022-12-18T04:43:18.604Z,30.33
2022-12-18T04:45:45.943Z,31.55
2022-12-18T04:48:13.548Z,29.48
2022-12-18T04:50:41.054Z,29.25
2022-12-18T04:53:08.773Z,29.50
2022-12-18T04:55:40.155Z,28.25
2022-12-18T04:58:07.625Z,28.65
2022-12-18T05:00:35.122Z,28.48
2022-12-18T05:03:03.922Z,28.10
2022-12-18T05:05:31.782Z,29.65
2022-12-18T05:07:59.174Z,27.65
2022-12-18T05:10:26.672Z,27.17
2022-12-18T05:13:01.039Z,27.67
2022-12-18T05:15:34.123Z,26.55
2022-12-18T05:18:03.786Z,26.15
2022-12-18T05:20:31.931Z,26.75
2022-12-18T05:22:59.346Z,27.35
2022-12-18T05:25:27.086Z,27.77
2022-12-18T05:27:55.285Z,28.30
2022-12-18T05:30:23.544Z,27.92
2022-12-18T05:32:51.081Z,26.42
2022-12-18T05:35:18.548Z,27.58
2022-12-18T05:37:47.461Z,29.17
2022-12-18T05:40:15.091Z,28.67
2022-12-18T05:42:42.483Z,27.63
2022-12-18T05:45:10.475Z,26.73
2022-12-18T05:47:38.189Z,27.00
2022-12-18T05:50:07.966Z,26.92
2022-12-18T05:52:35.492Z,26.98
2022-12-18T05:55:03.109Z,27.33
2022-12-18T05:57:30.982Z,27.42
2022-12-18T05:59:58.892Z,27.63
2022-12-18T06:02:26.813Z,26.33
2022-12-18T06:04:54.429Z,26.52
2022-12-18T06:07:21.914Z,27.00
2022-12-18T06:09:51.678Z,27.58
2022-12-18T06:12:19.033Z,26.58
2022-12-18T06:14:46.650Z,28.08
2022-12-18T06:17:13.945Z,27.65
2022-12-18T06:19:41.308Z,28.35
2022-12-18T06:22:08.721Z,27.17
2022-12-18T06:24:36.065Z,27.90
2022-12-18T06:27:03.410Z,26.92
2022-12-18T06:29:30.844Z,28.63
2022-12-18T06:31:58.552Z,27.83
2022-12-18T06:34:25.979Z,31.75
2022-12-18T06:36:53.378Z,38.90
2022-12-18T06:39:21.105Z,28.85
2022-12-18T06:41:48.743Z,29.27
2022-12-18T06:44:16.276Z,28.88
2022-12-18T06:46:43.655Z,29.10
2022-12-18T06:49:11.207Z,27.45
2022-12-18T06:51:39.027Z,26.98
2022-12-18T06:54:06.665Z,26.65
2022-12-18T06:56:35.415Z,27.90
2022-12-18T06:59:02.988Z,30.40
2022-12-18T07:01:30.757Z,29.95
2022-12-18T07:04:07.125Z,28.95
2022-12-18T07:06:37.752Z,28.50
2022-12-18T07:09:05.265Z,28.42
2022-12-18T07:11:34.957Z,30.67
2022-12-18T07:14:02.618Z,30.95
2022-12-18T07:16:30.200Z,29.55
2022-12-18T07:18:58.045Z,30.05
2022-12-18T07:21:26.542Z,28.10
2022-12-18T07:23:54.332Z,29.92
2022-12-18T07:26:23.119Z,30.38
2022-12-18T07:28:51.826Z,30.80
2022-12-18T07:31:22.869Z,28.70
2022-12-18T07:33:54.275Z,29.88
2022-12-18T07:36:21.787Z,30.75
2022-12-18T07:38:52.607Z,30.35
2022-12-18T07:41:20.290Z,29.85
2022-12-18T07:43:48.190Z,29.50
2022-12-18T07:46:17.312Z,28.00
2022-12-18T07:48:49.516Z,28.75
2022-12-18T07:51:18.885Z,29.60
2022-12-18T07:53:49.449Z,27.88
2022-12-18T07:56:30.537Z,30.23
2022-12-18T07:59:00.218Z,30.00
2022-12-18T08:01:28.532Z,29.55
2022-12-18T08:03:57.259Z,30.75
2022-12-18T08:06:28.023Z,31.23
2022-12-18T08:08:57.571Z,32.13
2022-12-18T08:11:28.815Z,31.25
2022-12-18T08:13:57.302Z,31.63
2022-12-18T08:16:28.069Z,30.80
2022-12-18T08:18:55.982Z,30.85
2022-12-18T08:21:31.596Z,32.85
2022-12-18T08:24:02.376Z,31.80
2022-12-18T08:26:32.326Z,33.28
2022-12-18T08:29:01.954Z,31.55
2022-12-18T08:31:31.547Z,31.02
2022-12-18T08:34:24.943Z,31.05
2022-12-18T08:36:52.376Z,31.83
2022-12-18T08:39:19.968Z,31.27
2022-12-18T08:42:10.214Z,32.40
2022-12-18T08:44:41.216Z,31.88
2022-12-18T08:47:09.292Z,31.58
2022-12-18T08:49:37.568Z,31.58
2022-12-18T08:52:05.367Z,33.10
2022-12-18T08:54:32.878Z,33.00
2022-12-18T08:57:03.199Z,31.52
2022-12-18T08:59:31.174Z,30.60
2022-12-18T09:01:58.700Z,31.00
2022-12-18T09:04:26.290Z,31.17
2022-12-18T09:06:57.086Z,31.33
2022-12-18T09:09:24.431Z,29.67
2022-12-18T09:11:52.044Z,29.60
2022-12-18T09:14:19.953Z,29.73
2022-12-18T09:16:51.170Z,28.58
2022-12-18T09:19:18.852Z,28.08
2022-12-18T09:21:48.455Z,28.58
2022-12-18T09:24:17.819Z,28.15
2022-12-18T09:26:58.034Z,29.15
2022-12-18T09:29:38.734Z,28.77
2022-12-18T09:32:22.519Z,26.85
2022-12-18T09:34:50.332Z,28.05
2022-12-18T09:37:17.977Z,27.45
2022-12-18T09:39:45.638Z,26.40
2022-12-18T09:42:23.572Z,27.85
2022-12-18T09:44:55.233Z,27.48
2022-12-18T09:47:41.887Z,27.95
2022-12-18T09:50:41.894Z,26.33
2022-12-18T09:53:23.984Z,27.55
2022-12-18T09:55:55.538Z,27.40
2022-12-18T09:58:45.467Z,29.75
2022-12-18T10:01:23.865Z,26.73
2022-12-18T10:03:54.611Z,27.92
2022-12-18T10:06:33.196Z,26.75
2022-12-18T10:09:35.897Z,26.77
2022-12-18T10:12:32.174Z,28.08
2022-12-18T10:15:16.911Z,26.58
2022-12-18T10:18:24.184Z,29.02
2022-12-18T10:21:05.468Z,26.33
2022-12-18T10:24:18.922Z,27.92
2022-12-18T10:26:48.849Z,27.00
2022-12-18T10:29:18.303Z,28.63
2022-12-18T10:31:46.038Z,28.20
2022-12-18T10:34:14.409Z,28.60
2022-12-18T10:36:43.746Z,29.15
2022-12-18T10:39:27.190Z,28.65
2022-12-18T10:42:18.373Z,28.38
2022-12-18T10:44:46.560Z,28.58
2022-12-18T10:47:20.525Z,28.58
2022-12-18T10:49:54.322Z,28.40
2022-12-18T10:52:29.613Z,29.55
2022-12-18T10:55:05.641Z,29.45
2022-12-18T10:57:42.733Z,28.05
2022-12-18T11:00:37.463Z,27.80
2022-12-18T11:03:37.040Z,27.83
2022-12-18T11:06:26.078Z,29.98
2022-12-18T11:09:14.460Z,29.60
2022-12-18T11:12:00.271Z,28.85
2022-12-18T11:14:49.889Z,29.23
2022-12-18T11:17:36.678Z,27.15
2022-12-18T11:20:29.209Z,30.65
2022-12-18T11:23:14.212Z,26.77
2022-12-18T11:25:54.927Z,29.60
2022-12-18T11:28:45.852Z,30.42
2022-12-18T11:31:26.778Z,28.98
2022-12-18T11:36:55.937Z,28.95
2022-12-18T11:39:46.263Z,28.40
2022-12-18T11:42:50.145Z,28.98
2022-12-18T11:45:32.701Z,30.10
2022-12-18T11:48:50.048Z,32.78
2022-12-18T11:51:37.143Z,29.73
2022-12-18T11:54:16.948Z,30.15
2022-12-18T11:57:46.531Z,30.27
2022-12-18T12:00:20.321Z,30.77
2022-12-18T12:03:29.171Z,30.67
2022-12-18T12:06:15.819Z,30.45
2022-12-18T12:09:03.851Z,30.90
2022-12-18T12:13:05.521Z,29.05
2022-12-18T12:16:33.547Z,31.05
2022-12-18T12:19:19.595Z,30.27
2022-12-18T12:22:07.745Z,28.48
2022-12-18T12:24:53.305Z,29.98
2022-12-18T12:27:56.619Z,28.58
2022-12-18T12:30:54.504Z,28.88
2022-12-18T12:33:36.769Z,29.55
2022-12-18T12:36:36.454Z,31.17
2022-12-18T12:39:18.943Z,29.67
2022-12-18T12:42:06.664Z,29.77
2022-12-18T12:44:56.180Z,28.52
2022-12-18T12:47:39.947Z,29.63
2022-12-18T12:50:19.973Z,29.45
2022-12-18T12:52:58.367Z,29.65
2022-12-18T12:55:54.431Z,31.05
2022-12-18T12:58:49.176Z,28.23
2022-12-18T13:01:49.576Z,29.75
2022-12-18T13:04:53.747Z,29.10
2022-12-18T13:08:04.644Z,29.98
2022-12-18T13:10:43.363Z,29.10
2022-12-18T13:13:23.219Z,28.90
2022-12-18T13:16:08.227Z,29.02
2022-12-18T13:18:37.115Z,29.63
2022-12-18T13:21:22.456Z,29.10
2022-12-18T13:23:50.369Z,30.58
2022-12-18T13:26:18.059Z,28.73
2022-12-18T13:28:47.445Z,28.92
2022-12-18T13:31:43.384Z,29.30
2022-12-18T13:34:28.097Z,28.83
2022-12-18T13:37:32.289Z,28.80
2022-12-18T13:39:59.889Z,30.77
2022-12-18T13:43:00.350Z,31.13
2022-12-18T13:45:50.394Z,28.33
2022-12-18T13:48:25.257Z,28.23
2022-12-18T13:51:11.270Z,29.15
2022-12-18T13:53:53.950Z,28.13
2022-12-18T13:56:33.651Z,27.73
2022-12-18T13:59:23.878Z,28.10
2022-12-18T14:02:03.838Z,27.63
2022-12-18T14:04:36.187Z,28.25
2022-12-18T14:07:18.909Z,28.17
2022-12-18T14:13:02.009Z,27.92
2022-12-18T14:15:41.410Z,28.45
2022-12-18T14:18:45.496Z,26.52
2022-12-18T14:21:30.467Z,28.20
2022-12-18T14:24:21.355Z,28.65
2022-12-18T14:26:52.027Z,28.25
2022-12-18T14:29:32.125Z,28.33
2022-12-18T14:32:22.038Z,28.10
2022-12-18T14:34:55.293Z,28.52
2022-12-18T14:37:28.918Z,26.95
2022-12-18T14:40:11.061Z,26.35
2022-12-18T14:42:39.201Z,26.48
2022-12-18T14:45:45.150Z,26.02
2022-12-18T14:48:13.785Z,26.60
2022-12-18T14:50:44.323Z,26.52
2022-12-18T14:53:37.737Z,26.02
2022-12-18T14:56:23.440Z,25.67
2022-12-18T14:59:26.151Z,26.52
2022-12-18T15:02:26.971Z,26.00
2022-12-18T15:05:17.560Z,27.17
2022-12-18T15:07:52.444Z,26.75
2022-12-18T15:10:33.693Z,26.35
2022-12-18T15:13:01.515Z,27.55
2022-12-18T15:15:37.723Z,26.92
2022-12-18T15:18:11.528Z,27.63
2022-12-18T15:21:00.381Z,27.10
2022-12-18T15:23:48.088Z,27.35
2022-12-18T15:26:20.278Z,28.23
2022-12-18T15:29:04.011Z,25.83
2022-12-18T15:31:38.596Z,27.58
2022-12-18T15:34:09.373Z,29.33
2022-12-18T15:36:37.600Z,26.85
2022-12-18T15:39:07.069Z,28.85
2022-12-18T15:41:37.710Z,29.42
2022-12-18T15:44:25.080Z,28.17
2022-12-18T15:46:52.659Z,29.75
2022-12-18T15:49:20.366Z,29.52
2022-12-18T15:51:56.434Z,28.63
2022-12-18T15:54:44.418Z,30.33
2022-12-18T15:57:25.628Z,30.38
2022-12-18T15:59:59.127Z,29.67
2022-12-18T16:02:29.380Z,29.23
2022-12-18T16:04:57.888Z,29.65
2022-12-18T16:07:28.182Z,28.42
2022-12-18T16:09:58.878Z,30.35
2022-12-18T16:12:27.935Z,28.73
2022-12-18T16:14:55.433Z,28.73
2022-12-18T16:17:23.013Z,28.95
2022-12-18T16:19:55.158Z,29.75
2022-12-18T16:22:31.851Z,32.28
2022-12-18T16:24:59.618Z,34.95
2022-12-18T16:27:27.544Z,33.50
2022-12-18T16:29:55.769Z,31.88
2022-12-18T16:32:24.615Z,31.52
2022-12-18T16:34:52.650Z,29.73
2022-12-18T16:37:20.051Z,30.73
2022-12-18T16:39:47.728Z,30.35
2022-12-18T16:42:21.205Z,32.00
2022-12-18T16:44:50.343Z,29.85
2022-12-18T16:47:19.329Z,30.13
2022-12-18T16:49:47.710Z,28.05
2022-12-18T16:52:16.581Z,28.13
2022-12-18T16:54:46.099Z,27.63
2022-12-18T16:57:19.746Z,28.35
2022-12-18T16:59:49.280Z,26.02
2022-12-18T17:02:25.225Z,26.83
2022-12-18T17:04:59.821Z,25.83
2022-12-18T17:07:28.450Z,27.88
2022-12-18T17:09:56.723Z,25.75
2022-12-18T17:12:25.055Z,27.48
2022-12-18T17:14:52.514Z,27.02
2022-12-18T17:17:21.803Z,27.23
2022-12-18T17:19:52.150Z,27.27
2022-12-18T17:22:23.574Z,25.77
2022-12-18T17:24:50.954Z,26.73
2022-12-18T17:27:18.758Z,27.83
2022-12-18T17:29:48.326Z,24.85
2022-12-18T17:32:18.158Z,25.27
2022-12-18T17:34:46.126Z,23.85
2022-12-18T17:37:14.350Z,23.45
2022-12-18T17:39:42.475Z,22.92
2022-12-18T17:42:14.812Z,22.80
2022-12-18T17:44:44.467Z,22.40
2022-12-18T17:47:17.495Z,22.88
2022-12-18T17:49:45.104Z,23.08
2022-12-18T17:52:12.472Z,23.63
2022-12-18T17:54:42.147Z,23.00
2022-12-18T17:57:10.979Z,21.95
2022-12-18T17:59:38.781Z,25.08
2022-12-18T18:02:06.499Z,22.77
2022-12-18T18:04:34.422Z,21.85
2022-12-18T18:07:01.883Z,21.33
2022-12-18T18:09:29.326Z,24.08
2022-12-18T18:12:15.893Z,23.15
2022-12-18T18:14:43.639Z,22.50
2022-12-18T18:17:11.228Z,22.50
2022-12-18T18:19:39.375Z,22.45
2022-12-18T18:22:07.910Z,21.27
2022-12-18T18:24:35.520Z,22.00
2022-12-18T18:27:03.239Z,21.80
2022-12-18T18:29:30.683Z,23.00
2022-12-18T18:31:59.241Z,22.38
2022-12-18T18:34:31.069Z,22.50
2022-12-18T18:36:58.605Z,21.38
2022-12-18T18:39:27.038Z,23.02
2022-12-18T18:41:55.062Z,21.50
2022-12-18T18:44:25.993Z,22.70
2022-12-18T18:46:58.611Z,24.10
2022-12-18T18:49:28.076Z,24.02
2022-12-18T18:51:57.830Z,22.23
2022-12-18T18:54:26.816Z,23.83
2022-12-18T18:59:43.765Z,22.58
2022-12-18T19:02:17.445Z,23.00
2022-12-18T19:04:46.658Z,24.60
2022-12-18T19:07:29.355Z,23.98
2022-12-18T19:10:04.189Z,23.08
2022-12-18T19:12:53.481Z,24.20
2022-12-18T19:15:22.291Z,22.90
2022-12-18T19:17:50.159Z,23.58
2022-12-18T19:20:18.201Z,21.27
2022-12-18T19:22:47.937Z,24.63
2022-12-18T19:25:38.627Z,25.55
2022-12-18T19:28:18.992Z,26.48
2022-12-18T19:30:58.669Z,26.42
2022-12-18T19:33:45.719Z,27.65
2022-12-18T19:36:25.148Z,27.38
2022-12-18T19:38:57.585Z,25.95
2022-12-18T19:41:29.121Z,26.88
2022-12-18T19:43:58.947Z,27.75
2022-12-18T19:46:26.406Z,26.48
2022-12-18T19:48:53.976Z,27.25
2022-12-18T19:51:28.910Z,25.60
2022-12-18T19:54:01.373Z,27.48
2022-12-18T19:56:34.909Z,25.67
2022-12-18T19:59:05.398Z,25.60
2022-12-18T20:01:33.666Z,25.55
2022-12-18T20:04:01.799Z,25.52
2022-12-18T20:06:53.408Z,25.85
2022-12-18T20:09:22.054Z,26.50
2022-12-18T20:11:50.591Z,25.77
2022-12-18T20:14:22.808Z,27.00
2022-12-18T20:16:52.487Z,26.30
2022-12-18T20:19:22.379Z,27.00
2022-12-18T20:21:50.321Z,28.80
2022-12-18T20:24:18.039Z,28.33
2022-12-18T20:26:45.636Z,30.80
2022-12-18T20:29:13.385Z,28.50
2022-12-18T20:31:41.516Z,29.98
2022-12-18T20:34:09.151Z,29.67
2022-12-18T20:36:39.818Z,30.38
2022-12-18T20:39:10.972Z,27.70
2022-12-18T20:41:40.324Z,29.02
2022-12-18T20:44:21.935Z,28.48
2022-12-18T20:46:57.877Z,27.42
2022-12-18T20:49:27.679Z,28.13
2022-12-18T20:51:57.803Z,27.13
2022-12-18T20:54:28.216Z,26.98
2022-12-18T20:56:56.807Z,28.02
2022-12-18T20:59:25.854Z,27.52
2022-12-18T21:01:54.390Z,29.80
2022-12-18T21:04:24.262Z,29.15
2022-12-18T21:37:19.491Z,27.33
2022-12-18T21:55:35.336Z,25.48
2022-12-18T22:08:23.329Z,25.67
2022-12-18T22:10:52.114Z,25.05
2022-12-18T22:13:19.389Z,25.98
2022-12-18T22:24:22.213Z,25.30
2022-12-18T22:27:01.829Z,28.70
2022-12-18T22:29:51.871Z,25.15
2022-12-18T22:32:30.750Z,24.95
2022-12-18T22:35:06.212Z,26.77
2022-12-18T22:37:35.531Z,24.90
2022-12-18T22:45:27.866Z,24.60
2022-12-18T22:47:55.586Z,25.20
2022-12-18T22:50:23.051Z,26.65
2022-12-18T22:52:50.572Z,26.23
2022-12-18T22:55:18.408Z,26.50
2022-12-18T22:57:48.539Z,26.80
2022-12-18T23:00:24.625Z,25.02
2022-12-18T23:02:59.984Z,26.00
2022-12-18T23:05:30.912Z,26.17
2022-12-18T23:07:59.279Z,24.90
2022-12-18T23:10:27.437Z,26.38
2022-12-18T23:12:54.920Z,28.25
2022-12-18T23:15:27.731Z,28.00
2022-12-18T23:17:58.888Z,29.00
2022-12-18T23:20:28.205Z,28.48
2022-12-18T23:22:55.724Z,28.88
2022-12-18T23:25:23.993Z,30.35
2022-12-18T23:27:52.047Z,28.42
2022-12-18T23:30:19.635Z,27.85
2022-12-18T23:32:47.181Z,27.55
2022-12-18T23:35:16.022Z,28.10
2022-12-18T23:37:58.985Z,28.13
2022-12-18T23:40:29.569Z,27.52
2022-12-18T23:42:57.823Z,28.13
2022-12-18T23:45:25.239Z,29.23
2022-12-18T23:47:52.874Z,27.55
2022-12-18T23:50:22.114Z,28.15
2022-12-18T23:52:57.698Z,28.23
2022-12-18T23:55:40.715Z,27.85
2022-12-18T23:58:19.489Z,28.73
